Time;durP1;ratioP1;P1;durP2;ratioP2;P2;SDS_P1;SDS_P2;PMS_P1;PMS_P2;Temp;Humidity;BMP_temperature;BMP_pressure;BME280_temperature;BME280_humidity;BME280_pressure;Samples;Min_cycle;Max_cycle;Signal;HPM_P1;HPM_P2
2023/03/31 00:01:11;;;;;;;12.40;2.10;;;;;;;15.43;48.16;96862.59;5047220;28;20483;-71
2023/03/31 00:03:42;;;;;;;6.37;2.00;;;;;;;15.37;48.19;96861.53;5054389;28;20274;-71
2023/03/31 00:06:10;;;;;;;6.13;2.00;;;;;;;15.41;47.97;96856.69;5062060;28;20445;-72
2023/03/31 00:08:36;;;;;;;5.37;1.73;;;;;;;15.45;48.21;96850.84;5054689;28;20476;-72
2023/03/31 00:11:03;;;;;;;5.90;2.07;;;;;;;15.49;48.06;96845.97;5054272;28;20450;-71
2023/03/31 00:13:30;;;;;;;4.93;1.93;;;;;;;15.50;47.92;96837.84;5051154;28;20183;-71
2023/03/31 00:16:00;;;;;;;6.77;2.00;;;;;;;15.54;47.50;96834.81;5051311;28;20429;-71
2023/03/31 00:18:26;;;;;;;7.27;1.97;;;;;;;15.56;47.79;96846.03;5047875;28;20603;-70
2023/03/31 00:20:53;;;;;;;7.93;2.13;;;;;;;15.53;47.63;96839.31;5050105;28;20445;-71
2023/03/31 00:23:26;;;;;;;5.73;2.20;;;;;;;15.55;47.58;96831.19;5059560;28;20179;-71
2023/03/31 00:25:53;;;;;;;12.17;2.20;;;;;;;15.55;47.61;96815.34;5050743;28;20467;-70
2023/03/31 00:28:19;;;;;;;6.77;1.93;;;;;;;15.48;47.83;96815.28;5051289;28;20497;-71
2023/03/31 00:30:46;;;;;;;6.80;2.60;;;;;;;15.46;47.75;96823.41;5057179;28;20522;-70
2023/03/31 00:33:12;;;;;;;7.10;2.00;;;;;;;15.42;48.13;96810.78;5040922;28;20229;-71
2023/03/31 00:35:38;;;;;;;6.20;1.90;;;;;;;15.43;48.00;96802.66;5051217;28;20873;-72
2023/03/31 00:38:04;;;;;;;4.83;2.40;;;;;;;15.45;48.16;96803.31;5058700;28;20460;-72
2023/03/31 00:40:30;;;;;;;4.90;1.80;;;;;;;15.45;48.09;96800.66;5049852;28;20882;-71
2023/03/31 00:42:56;;;;;;;4.57;2.00;;;;;;;15.46;48.14;96797.00;5045527;28;20468;-70
2023/03/31 00:45:27;;;;;;;6.00;2.10;;;;;;;15.42;48.35;96806.31;5049699;28;20863;-71
2023/03/31 00:48:02;;;;;;;5.70;2.10;;;;;;;15.36;48.48;96804.47;5054627;28;20667;-69
2023/03/31 00:50:32;;;;;;;5.13;1.80;;;;;;;15.34;48.54;96794.06;5050409;28;20454;-71
2023/03/31 00:53:17;;;;;;;4.70;2.00;;;;;;;15.42;48.37;96782.56;5049688;28;20438;-70
2023/03/31 00:55:46;;;;;;;5.77;2.30;;;;;;;15.47;48.19;96780.16;5045018;28;20483;-72
2023/03/31 00:58:13;;;;;;;6.57;2.30;;;;;;;15.47;48.27;96788.09;5058076;28;20520;-70
2023/03/31 01:00:40;;;;;;;4.27;1.83;;;;;;;15.46;48.36;96782.97;5050024;28;20434;-71
2023/03/31 01:03:08;;;;;;;2.83;1.70;;;;;;;15.50;48.27;96786.88;5056828;28;20421;-70
2023/03/31 01:05:49;;;;;;;9.40;2.10;;;;;;;15.51;48.27;96778.75;5054378;28;20426;-71
2023/03/31 01:08:17;;;;;;;6.67;1.90;;;;;;;15.50;48.24;96778.94;5045006;28;20444;-71
2023/03/31 01:10:46;;;;;;;7.83;2.23;;;;;;;15.55;48.06;96770.44;5048532;28;20446;-71
2023/03/31 01:13:13;;;;;;;4.93;2.33;;;;;;;15.44;47.89;96762.06;5064139;28;20428;-70
2023/03/31 01:15:39;;;;;;;9.40;2.43;;;;;;;15.52;47.88;96747.88;5046417;28;20425;-72
2023/03/31 01:18:05;;;;;;;6.23;2.50;;;;;;;15.52;47.86;96743.41;5046830;28;20522;-70
2023/03/31 01:21:08;;;;;;;4.03;2.43;;;;;;;15.55;48.00;96728.19;5044384;28;20199;-70
2023/03/31 01:23:39;;;;;;;6.50;2.63;;;;;;;15.59;48.04;96722.31;5042580;28;20476;-69
2023/03/31 01:26:09;;;;;;;5.60;2.10;;;;;;;15.60;48.01;96723.16;5045948;28;20797;-70
2023/03/31 01:28:53;;;;;;;13.47;2.17;;;;;;;15.57;47.84;96724.34;5051576;28;21219;-70
2023/03/31 01:31:19;;;;;;;9.80;2.50;;;;;;;15.56;47.68;96729.81;5050297;28;20482;-70
2023/03/31 01:34:01;;;;;;;9.13;2.10;;;;;;;15.52;47.79;96724.13;5064553;28;20992;-68
2023/03/31 01:36:33;;;;;;;5.50;2.30;;;;;;;15.55;47.66;96726.38;5054364;28;20938;-70
2023/03/31 01:39:11;;;;;;;9.43;2.77;;;;;;;15.54;47.67;96737.13;5060408;28;20436;-69
2023/03/31 01:42:00;;;;;;;8.90;2.40;;;;;;;15.41;47.89;96735.22;5055551;28;20455;-71
2023/03/31 01:44:45;;;;;;;5.67;2.37;;;;;;;15.37;48.06;96740.09;5071399;28;20929;-70
2023/03/31 01:47:31;;;;;;;5.97;2.20;;;;;;;15.29;48.61;96743.69;5063077;28;20436;-70
2023/03/31 01:50:30;;;;;;;11.17;2.40;;;;;;;15.24;48.76;96745.28;5061095;28;20979;-70
2023/03/31 01:53:00;;;;;;;9.43;2.10;;;;;;;15.19;49.29;96744.03;5054877;28;20504;-70
2023/03/31 01:55:40;;;;;;;8.97;2.23;;;;;;;15.15;49.76;96748.06;5061446;28;20458;-71
2023/03/31 01:58:24;;;;;;;4.77;2.47;;;;;;;15.11;50.46;96757.38;5056429;28;20437;-70
2023/03/31 02:00:57;;;;;;;4.37;2.30;;;;;;;15.16;50.45;96754.16;5067410;28;20464;-70
2023/03/31 02:03:28;;;;;;;6.93;2.13;;;;;;;15.03;50.56;96750.44;5059213;28;20433;-69
2023/03/31 02:05:57;;;;;;;5.67;2.20;;;;;;;15.12;51.06;96747.63;5064608;28;20441;-70
2023/03/31 02:08:26;;;;;;;7.17;2.33;;;;;;;15.14;51.16;96743.78;5063212;28;20442;-70
2023/03/31 02:10:52;;;;;;;5.23;2.40;;;;;;;15.17;51.47;96737.31;5074634;28;20532;-71
2023/03/31 02:13:20;;;;;;;7.70;2.03;;;;;;;14.83;51.59;96739.72;5079805;28;20988;-71
2023/03/31 02:15:48;;;;;;;4.43;2.20;;;;;;;14.99;51.82;96732.53;5073804;28;20199;-71
2023/03/31 02:18:16;;;;;;;6.17;2.13;;;;;;;14.89;52.66;96723.09;5074980;28;21378;-71
2023/03/31 02:20:44;;;;;;;6.00;1.63;;;;;;;14.96;52.39;96714.44;5088371;28;20460;-71
2023/03/31 02:23:12;;;;;;;6.30;2.30;;;;;;;14.81;53.19;96699.53;5072415;28;20425;-70
2023/03/31 02:25:41;;;;;;;4.23;2.27;;;;;;;14.89;53.29;96695.91;5074033;28;20428;-71
2023/03/31 02:28:10;;;;;;;7.03;2.40;;;;;;;14.93;53.31;96696.34;5072858;28;20460;-71
2023/03/31 02:30:59;;;;;;;8.43;2.70;;;;;;;14.83;53.53;96692.22;5066179;28;20555;-71
2023/03/31 02:33:25;;;;;;;8.30;2.40;;;;;;;14.64;54.06;96684.94;5065646;28;20547;-69
2023/03/31 02:35:50;;;;;;;5.40;1.90;;;;;;;14.74;54.02;96667.00;5063958;28;20468;-71
2023/03/31 02:38:16;;;;;;;6.27;2.70;;;;;;;14.71;54.20;96660.28;5070156;28;20275;-70
2023/03/31 02:40:42;;;;;;;5.77;2.57;;;;;;;14.77;53.94;96645.50;5077142;28;20210;-71
2023/03/31 02:43:07;;;;;;;4.80;2.10;;;;;;;14.84;53.51;96624.44;5079071;28;20194;-71
2023/03/31 02:45:43;;;;;;;6.07;2.47;;;;;;;14.78;53.78;96610.22;5059372;28;20784;-70
2023/03/31 02:48:22;;;;;;;4.80;2.60;;;;;;;14.87;53.52;96602.97;5040677;28;20193;-71
2023/03/31 02:51:09;;;;;;;16.40;2.70;;;;;;;14.87;53.67;96600.31;5054118;28;20455;-70
2023/03/31 02:54:01;;;;;;;10.63;2.87;;;;;;;14.85;54.16;96595.25;5046345;28;20470;-71
2023/03/31 02:56:35;;;;;;;6.83;2.40;;;;;;;14.90;53.95;96595.47;5039933;28;20425;-71
2023/03/31 02:59:38;;;;;;;9.77;2.77;;;;;;;14.89;54.05;96585.94;5056708;28;20483;-71
2023/03/31 03:02:04;;;;;;;4.50;2.43;;;;;;;14.89;54.03;96588.56;5056143;28;20933;-70
2023/03/31 03:04:48;;;;;;;7.80;2.53;;;;;;;14.79;54.41;96568.84;5042554;28;20433;-70
2023/03/31 03:07:22;;;;;;;4.40;2.30;;;;;;;14.71;54.58;96561.91;5049438;28;20244;-70
2023/03/31 03:10:02;;;;;;;8.63;2.03;;;;;;;14.72;54.85;96558.25;5046456;28;20452;-69
2023/03/31 03:12:37;;;;;;;6.63;2.60;;;;;;;14.67;54.92;96544.78;5045363;28;20521;-71
2023/03/31 03:15:11;;;;;;;7.13;2.40;;;;;;;14.59;54.96;96536.03;5051007;28;20487;-69
2023/03/31 03:17:43;;;;;;;4.47;2.40;;;;;;;14.58;55.41;96533.59;5047129;28;20425;-70
2023/03/31 03:20:09;;;;;;;6.57;2.57;;;;;;;14.53;55.51;96520.97;5040595;28;20472;-69
2023/03/31 03:22:36;;;;;;;6.13;2.57;;;;;;;14.55;55.46;96505.78;5042791;28;20803;-69
2023/03/31 03:25:06;;;;;;;11.73;3.20;;;;;;;14.53;55.74;96499.88;5048716;28;20449;-70
2023/03/31 03:27:31;;;;;;;4.97;2.57;;;;;;;14.52;55.42;96495.63;5051236;28;20481;-71
2023/03/31 03:29:57;;;;;;;7.87;2.30;;;;;;;14.42;55.61;96490.72;5047882;28;20453;-71
2023/03/31 03:32:22;;;;;;;7.27;2.17;;;;;;;14.47;55.68;96487.50;5045848;28;20320;-72
2023/03/31 03:34:48;;;;;;;8.73;2.67;;;;;;;14.44;55.59;96483.41;5051032;28;20674;-71
2023/03/31 03:37:13;;;;;;;8.07;2.73;;;;;;;14.29;55.68;96475.63;5041458;28;20187;-71
2023/03/31 03:39:39;;;;;;;4.87;2.50;;;;;;;14.14;56.40;96472.28;5049050;28;20279;-70
2023/03/31 03:42:04;;;;;;;4.60;2.40;;;;;;;14.13;56.54;96473.28;5055298;28;20694;-69
2023/03/31 03:44:30;;;;;;;6.30;2.70;;;;;;;14.08;56.51;96465.16;5062775;28;20191;-70
2023/03/31 03:46:55;;;;;;;5.10;2.43;;;;;;;14.02;56.66;96458.03;5036342;28;20751;-70
2023/03/31 03:49:21;;;;;;;5.53;2.60;;;;;;;14.03;56.74;96451.75;5043074;28;20614;-69
2023/03/31 03:51:46;;;;;;;5.30;2.57;;;;;;;13.98;57.06;96441.78;5055912;28;20605;-69
2023/03/31 03:54:12;;;;;;;6.30;2.87;;;;;;;13.90;57.36;96439.31;5042360;28;20257;-70
2023/03/31 03:56:37;;;;;;;6.63;3.03;;;;;;;13.82;57.16;96429.72;5046052;28;20761;-70
2023/03/31 03:59:03;;;;;;;4.33;2.90;;;;;;;13.81;57.37;96421.00;5039316;28;20187;-69
2023/03/31 04:01:28;;;;;;;11.70;3.00;;;;;;;13.81;57.25;96414.94;5041700;28;20546;-71
2023/03/31 04:03:54;;;;;;;9.73;2.97;;;;;;;13.63;57.77;96416.22;5035304;28;20200;-70
2023/03/31 04:06:19;;;;;;;5.20;2.73;;;;;;;13.63;57.61;96400.41;5048456;28;20214;-68
2023/03/31 04:08:45;;;;;;;7.63;3.27;;;;;;;13.46;58.25;96402.53;5041395;28;20256;-70
2023/03/31 04:11:16;;;;;;;5.33;2.80;;;;;;;13.43;58.46;96404.72;5044157;28;20276;-71
2023/03/31 04:13:42;;;;;;;7.77;2.87;;;;;;;13.46;58.38;96391.19;5049990;28;20215;-70
2023/03/31 04:16:08;;;;;;;7.47;2.83;;;;;;;13.60;58.30;96377.13;5035375;28;20477;-70
2023/03/31 04:18:35;;;;;;;6.00;3.20;;;;;;;13.52;58.23;96362.28;5051218;28;20486;-69
2023/03/31 04:21:04;;;;;;;7.33;3.27;;;;;;;13.48;58.58;96373.41;5043275;28;20593;-70
2023/03/31 04:23:31;;;;;;;5.97;3.23;;;;;;;13.48;58.59;96368.13;5035032;28;20488;-70
2023/03/31 04:25:57;;;;;;;5.03;2.90;;;;;;;13.45;58.92;96358.78;5034770;28;20439;-70
2023/03/31 04:28:22;;;;;;;6.93;3.30;;;;;;;13.56;58.51;96364.50;5041135;28;20432;-70
2023/03/31 04:30:48;;;;;;;5.67;3.37;;;;;;;13.56;58.78;96360.06;5037759;28;20226;-69
2023/03/31 04:33:14;;;;;;;5.70;3.03;;;;;;;13.61;58.54;96362.13;5047320;28;20245;-70
2023/03/31 04:35:49;;;;;;;7.77;3.37;;;;;;;13.61;58.56;96346.34;5037353;28;20639;-71
2023/03/31 04:38:19;;;;;;;8.83;3.27;;;;;;;13.69;58.02;96363.81;5036494;28;20429;-71
2023/03/31 04:40:46;;;;;;;7.90;3.47;;;;;;;13.66;58.27;96350.03;5047008;28;20498;-70
2023/03/31 04:43:11;;;;;;;5.80;3.10;;;;;;;13.73;57.99;96359.78;5051063;28;20946;-70
2023/03/31 04:45:37;;;;;;;8.03;3.77;;;;;;;13.78;58.24;96346.84;5052488;28;20446;-70
2023/03/31 04:48:02;;;;;;;10.70;3.67;;;;;;;13.79;58.19;96338.78;5043899;28;20616;-70
2023/03/31 04:50:28;;;;;;;8.23;3.40;;;;;;;13.80;58.21;96335.09;5047506;28;20236;-71
2023/03/31 04:52:54;;;;;;;8.23;3.57;;;;;;;13.87;58.26;96337.78;5051960;28;20226;-71
2023/03/31 04:55:19;;;;;;;10.73;3.70;;;;;;;13.96;58.04;96330.53;5047275;28;20667;-70
2023/03/31 04:57:44;;;;;;;4.93;3.63;;;;;;;13.94;57.60;96325.47;5037121;28;20846;-71
2023/03/31 05:00:10;;;;;;;6.33;3.80;;;;;;;13.89;58.10;96322.59;5047830;28;20202;-71
2023/03/31 05:02:36;;;;;;;11.00;3.87;;;;;;;13.79;58.15;96317.69;5044428;28;20215;-71
2023/03/31 05:05:02;;;;;;;8.50;3.23;;;;;;;13.83;58.19;96312.84;5038713;28;20429;-70
2023/03/31 05:07:28;;;;;;;7.50;3.73;;;;;;;13.90;57.98;96312.88;5046519;28;20183;-70
2023/03/31 05:09:53;;;;;;;11.00;4.90;;;;;;;13.89;57.66;96311.25;5048562;28;20449;-69
2023/03/31 05:12:18;;;;;;;6.93;3.83;;;;;;;13.92;58.15;96327.47;5045292;28;20215;-69
2023/03/31 05:14:44;;;;;;;8.20;4.00;;;;;;;14.00;57.97;96334.41;5034690;28;20661;-70
2023/03/31 05:17:10;;;;;;;8.23;4.20;;;;;;;14.06;57.90;96343.34;5044104;28;20256;-71
2023/03/31 05:19:35;;;;;;;8.47;4.13;;;;;;;14.09;58.14;96346.41;5044404;28;20199;-69
2023/03/31 05:22:00;;;;;;;9.33;4.37;;;;;;;14.13;58.44;96367.91;5037135;28;20259;-70
2023/03/31 05:24:28;;;;;;;8.30;4.20;;;;;;;14.17;58.17;96384.16;5037740;28;20862;-70
2023/03/31 05:26:54;;;;;;;13.50;4.80;;;;;;;14.16;58.65;96375.41;5040456;28;20191;-70
2023/03/31 05:29:20;;;;;;;9.73;3.80;;;;;;;14.15;59.37;96373.00;5036875;28;20948;-70
2023/03/31 05:31:46;;;;;;;9.23;3.80;;;;;;;14.09;59.57;96359.56;5041365;28;20458;-71
2023/03/31 05:34:13;;;;;;;7.30;4.10;;;;;;;14.02;59.71;96361.38;5045032;28;20793;-71
2023/03/31 05:36:38;;;;;;;9.03;4.23;;;;;;;14.05;60.34;96362.81;5049695;28;20233;-71
2023/03/31 05:39:04;;;;;;;10.97;4.50;;;;;;;14.03;60.27;96354.28;5044860;28;20437;-70
2023/03/31 05:41:30;;;;;;;10.30;4.23;;;;;;;14.06;60.69;96351.25;5039753;28;20746;-71
2023/03/31 05:43:55;;;;;;;7.50;4.37;;;;;;;14.05;60.41;96339.09;5041035;28;20462;-70
2023/03/31 05:46:21;;;;;;;10.30;4.57;;;;;;;14.05;61.18;96333.81;5035512;28;20540;-70
2023/03/31 05:48:46;;;;;;;8.67;4.60;;;;;;;14.08;61.09;96317.63;5040944;28;20565;-70
2023/03/31 05:51:12;;;;;;;9.30;5.70;;;;;;;14.08;61.23;96317.63;5040475;28;20211;-71
2023/03/31 05:53:38;;;;;;;9.90;5.47;;;;;;;14.07;61.60;96302.84;5040718;28;20227;-71
2023/03/31 05:56:05;;;;;;;6.67;4.50;;;;;;;14.09;61.22;96295.56;5037297;28;20195;-70
2023/03/31 05:58:35;;;;;;;12.87;6.20;;;;;;;14.10;61.18;96295.34;5054723;28;20190;-70
2023/03/31 06:01:19;;;;;;;16.33;4.90;;;;;;;14.06;61.08;96293.31;5047408;28;20461;-70
2023/03/31 06:03:45;;;;;;;6.77;4.90;;;;;;;13.96;61.34;96291.84;5031971;28;21046;-70
2023/03/31 06:06:15;;;;;;;10.03;5.03;;;;;;;13.97;61.37;96280.31;5034043;28;20935;-70
2023/03/31 06:08:41;;;;;;;12.60;5.27;;;;;;;13.88;61.73;96273.56;5031374;28;20523;-71
2023/03/31 06:11:09;;;;;;;9.23;5.00;;;;;;;13.86;61.89;96266.88;5044161;28;20559;-70
2023/03/31 06:13:35;;;;;;;8.47;5.40;;;;;;;13.79;62.25;96259.78;5040282;28;20462;-71
2023/03/31 06:16:01;;;;;;;9.30;4.87;;;;;;;13.84;62.58;96261.81;5039311;28;20453;-72
2023/03/31 06:18:29;;;;;;;11.57;5.40;;;;;;;13.81;62.51;96272.72;5037963;28;20441;-72
2023/03/31 06:20:54;;;;;;;10.37;4.90;;;;;;;13.87;62.06;96250.88;5039749;28;20500;-71
2023/03/31 06:23:21;;;;;;;8.27;4.77;;;;;;;13.83;62.37;96247.03;5021651;28;20434;-71
2023/03/31 06:25:46;;;;;;;8.70;5.53;;;;;;;13.86;62.55;96238.69;5046607;28;20275;-71
2023/03/31 06:28:12;;;;;;;12.13;5.47;;;;;;;13.88;62.34;96239.31;5052624;28;20520;-71
2023/03/31 06:30:37;;;;;;;12.30;5.23;;;;;;;13.83;62.10;96234.66;5050704;28;20293;-70
2023/03/31 06:33:03;;;;;;;15.23;5.60;;;;;;;13.86;62.29;96238.69;5041245;28;20290;-70
2023/03/31 06:35:29;;;;;;;8.67;5.60;;;;;;;13.87;62.72;96242.97;5034928;28;20207;-72
2023/03/31 06:37:54;;;;;;;10.63;5.13;;;;;;;13.90;62.84;96250.47;5046159;28;20437;-72
2023/03/31 06:40:20;;;;;;;11.97;5.20;;;;;;;13.86;62.29;96246.59;5035842;28;20753;-71
2023/03/31 06:42:45;;;;;;;15.47;5.50;;;;;;;13.73;63.06;96249.22;5038110;28;20183;-70
2023/03/31 06:45:11;;;;;;;12.50;5.90;;;;;;;13.76;63.26;96270.69;5028537;28;20187;-70
2023/03/31 06:47:37;;;;;;;9.90;5.23;;;;;;;13.83;63.06;96257.56;4992522;28;20707;-71
2023/03/31 06:50:04;;;;;;;15.40;5.20;;;;;;;13.82;63.04;96274.34;5021280;28;20298;-72
2023/03/31 06:52:30;;;;;;;14.47;6.17;;;;;;;13.77;63.46;96282.03;5046496;28;20239;-72
2023/03/31 06:54:56;;;;;;;13.60;5.53;;;;;;;13.60;63.69;96287.63;5030981;28;20456;-71
2023/03/31 06:57:21;;;;;;;12.77;6.67;;;;;;;13.59;63.76;96299.16;5041637;28;20434;-71
2023/03/31 06:59:47;;;;;;;10.00;5.40;;;;;;;13.57;63.97;96302.97;5045521;28;20191;-71
2023/03/31 07:02:13;;;;;;;10.30;5.23;;;;;;;13.56;64.38;96320.59;5048662;28;20369;-70
2023/03/31 07:04:39;;;;;;;10.17;5.77;;;;;;;13.44;64.40;96330.81;5048842;28;20191;-70
2023/03/31 07:07:04;;;;;;;12.90;5.17;;;;;;;13.41;64.88;96346.19;5045239;28;20474;-71
2023/03/31 07:09:30;;;;;;;9.57;5.17;;;;;;;13.35;65.41;96331.94;5034453;28;20225;-71
2023/03/31 07:11:55;;;;;;;9.43;4.80;;;;;;;12.97;66.32;96329.63;5045556;28;20204;-70
2023/03/31 07:14:21;;;;;;;9.00;4.90;;;;;;;13.29;65.24;96290.63;5044719;28;20835;-70
2023/03/31 07:16:47;;;;;;;6.20;4.57;;;;;;;13.03;65.72;96273.66;5033668;28;20188;-70
2023/03/31 07:19:14;;;;;;;10.63;4.30;;;;;;;13.23;65.53;96239.59;5043167;28;20429;-70
2023/03/31 07:21:39;;;;;;;9.33;4.60;;;;;;;13.24;65.16;96256.19;5031858;28;20326;-70
2023/03/31 07:24:05;;;;;;;7.17;3.20;;;;;;;13.20;64.40;96253.13;5046233;28;20425;-70
2023/03/31 07:26:30;;;;;;;6.47;3.50;;;;;;;12.99;63.99;96241.63;5040268;28;20195;-71
2023/03/31 07:28:56;;;;;;;3.10;2.50;;;;;;;13.25;63.74;96237.56;5045995;28;20847;-70
2023/03/31 07:31:22;;;;;;;3.87;3.00;;;;;;;13.13;63.48;96249.63;5046605;28;20573;-70
2023/03/31 07:33:47;;;;;;;4.23;3.00;;;;;;;13.32;63.74;96251.59;5037683;28;20211;-71
2023/03/31 07:36:13;;;;;;;10.90;4.23;;;;;;;13.48;63.42;96252.31;5047958;28;20446;-71
2023/03/31 07:38:40;;;;;;;5.37;2.90;;;;;;;13.75;62.83;96250.63;5038998;28;20708;-71
2023/03/31 07:41:09;;;;;;;7.40;3.03;;;;;;;13.94;61.65;96246.44;5032468;28;20204;-70
2023/03/31 07:43:34;;;;;;;3.37;2.20;;;;;;;14.31;61.20;96240.06;5039585;28;20509;-70
2023/03/31 07:46:00;;;;;;;5.43;2.13;;;;;;;14.70;60.55;96244.59;5045143;28;20586;-70
2023/03/31 07:48:27;;;;;;;3.50;2.37;;;;;;;14.84;59.45;96244.63;5033143;28;20306;-71
2023/03/31 07:50:53;;;;;;;4.43;2.23;;;;;;;14.87;58.55;96246.84;5043230;28;20225;-71
2023/03/31 07:53:18;;;;;;;3.97;2.00;;;;;;;15.26;57.14;96223.28;5031248;28;20462;-71
2023/03/31 07:55:46;;;;;;;2.67;1.60;;;;;;;15.38;56.13;96218.97;5039219;28;20196;-71
2023/03/31 07:58:11;;;;;;;1.80;1.20;;;;;;;15.19;55.17;96224.09;5033365;28;20196;-71
2023/03/31 08:00:37;;;;;;;2.90;1.50;;;;;;;14.86;55.36;96226.78;5037059;28;20467;-72
2023/03/31 08:03:02;;;;;;;4.83;1.90;;;;;;;15.12;55.72;96220.66;5033204;28;20223;-71
2023/03/31 08:05:28;;;;;;;4.17;1.67;;;;;;;15.12;55.94;96227.75;5032460;28;20253;-70
2023/03/31 08:07:53;;;;;;;2.83;1.80;;;;;;;15.34;55.59;96225.72;5034508;28;20271;-70
2023/03/31 08:10:22;;;;;;;3.00;1.83;;;;;;;15.82;55.05;96220.06;5041690;28;20206;-73
2023/03/31 08:12:48;;;;;;;4.67;1.60;;;;;;;16.16;53.92;96221.75;5032685;28;20717;-72
2023/03/31 08:15:13;;;;;;;1.33;1.10;;;;;;;16.15;53.34;96218.31;5033839;28;20443;-70
2023/03/31 08:17:39;;;;;;;2.60;1.40;;;;;;;15.82;53.94;96214.78;5033193;28;20203;-72
2023/03/31 08:20:09;;;;;;;2.03;1.23;;;;;;;16.63;52.13;96203.78;5038436;28;20219;-71
2023/03/31 08:22:37;;;;;;;1.80;1.10;;;;;;;17.09;51.40;96196.47;5018674;28;20792;-70
2023/03/31 08:25:04;;;;;;;1.83;0.90;;;;;;;17.59;51.58;96187.63;5033314;28;20705;-70
2023/03/31 08:27:34;;;;;;;1.93;1.00;;;;;;;17.74;49.28;96187.22;5036524;28;20433;-71
2023/03/31 08:30:03;;;;;;;1.73;1.20;;;;;;;17.80;50.10;96190.81;5021960;28;20466;-72
2023/03/31 08:32:29;;;;;;;2.30;1.67;;;;;;;18.13;49.45;96189.63;5029166;28;20469;-72
2023/03/31 08:34:55;;;;;;;2.70;1.10;;;;;;;18.38;48.55;96186.03;5031412;28;20496;-71
2023/03/31 08:37:20;;;;;;;3.87;1.30;;;;;;;18.48;47.81;96183.63;5029612;28;20438;-72
2023/03/31 08:39:46;;;;;;;3.50;1.30;;;;;;;18.82;47.46;96178.56;5039564;28;20187;-73
2023/03/31 08:42:16;;;;;;;3.20;1.10;;;;;;;19.06;46.37;96170.66;5033242;28;20199;-71
2023/03/31 08:44:53;;;;;;;3.90;1.20;;;;;;;19.30;45.13;96176.75;5030590;28;20302;-72
2023/03/31 08:47:21;;;;;;;2.20;1.20;;;;;;;19.48;44.88;96186.44;5030888;28;20438;-72
2023/03/31 08:49:59;;;;;;;3.33;1.30;;;;;;;19.34;44.40;96182.41;5036465;28;20441;-72
2023/03/31 08:52:31;;;;;;;2.93;1.20;;;;;;;19.29;44.76;96188.41;5020955;28;21004;-71
2023/03/31 08:55:09;;;;;;;2.47;1.07;;;;;;;19.71;44.85;96175.97;5027348;28;20567;-71
2023/03/31 08:57:40;;;;;;;3.47;1.27;;;;;;;19.42;44.16;96194.53;5027037;28;20475;-72
2023/03/31 09:00:13;;;;;;;3.67;1.20;;;;;;;19.70;43.82;96175.16;5036649;28;20446;-71
2023/03/31 09:02:57;;;;;;;1.80;1.20;;;;;;;19.55;43.47;96188.13;5036132;28;20426;-71
2023/03/31 09:05:57;;;;;;;2.17;1.37;;;;;;;19.80;43.89;96178.00;5028533;28;20442;-70
2023/03/31 09:08:41;;;;;;;6.90;1.50;;;;;;;20.09;41.87;96167.41;5022384;28;20450;-71
2023/03/31 09:11:39;;;;;;;3.23;1.27;;;;;;;20.18;41.96;96167.84;5044872;28;20449;-71
2023/03/31 09:14:11;;;;;;;3.37;1.50;;;;;;;20.23;40.93;96161.81;5025795;28;20440;-71
2023/03/31 09:17:14;;;;;;;8.87;1.63;;;;;;;20.59;40.35;96158.94;5035105;28;20881;-70
2023/03/31 09:19:48;;;;;;;2.07;1.07;;;;;;;20.85;39.40;96158.31;5038637;28;20465;-71
2023/03/31 09:22:35;;;;;;;2.42;1.20;;;;;;;20.86;38.73;96153.78;5030155;28;20381;-71
2023/03/31 09:25:19;;;;;;;3.57;1.27;;;;;;;20.74;38.45;96153.06;5035076;28;20234;-72
2023/03/31 09:27:46;;;;;;;2.70;1.10;;;;;;;19.85;39.32;96157.91;5050587;28;20444;-71
2023/03/31 09:30:20;;;;;;;6.10;1.30;;;;;;;19.69;39.84;96140.88;5051581;28;20462;-70
2023/03/31 09:32:47;;;;;;;9.90;1.37;;;;;;;19.30;39.93;96171.44;5040625;28;20545;-71
2023/03/31 09:35:21;;;;;;;3.37;1.17;;;;;;;19.07;40.56;96171.47;5043087;28;20457;-74
2023/03/31 09:37:47;;;;;;;5.20;1.40;;;;;;;18.58;40.72;96170.59;5047149;28;20417;-72
2023/03/31 09:40:25;;;;;;;4.30;1.77;;;;;;;18.06;41.51;96183.59;5034872;28;20485;-71
2023/03/31 09:42:54;;;;;;;6.80;1.50;;;;;;;17.86;42.32;96187.31;5034813;28;20461;-71
2023/03/31 09:45:20;;;;;;;1.63;0.97;;;;;;;17.62;44.50;96189.84;5052180;28;20494;-72
2023/03/31 09:47:53;;;;;;;3.70;1.30;;;;;;;17.63;44.05;96175.56;5022656;28;20990;-71
2023/03/31 09:50:19;;;;;;;6.27;1.20;;;;;;;17.99;44.40;96164.34;5044333;28;20207;-71
2023/03/31 09:52:52;;;;;;;3.17;1.40;;;;;;;18.33;42.36;96154.06;5042193;28;20488;-72
2023/03/31 09:55:18;;;;;;;3.87;1.30;;;;;;;18.71;41.57;96147.53;5049633;28;20480;-71
2023/03/31 09:57:43;;;;;;;2.93;1.47;;;;;;;18.72;40.97;96149.16;5052126;28;20937;-71
2023/03/31 10:00:17;;;;;;;4.00;1.30;;;;;;;18.88;39.77;96148.47;5047107;28;20238;-71
2023/03/31 10:02:56;;;;;;;2.83;1.00;;;;;;;19.07;39.03;96121.81;5048162;28;20186;-71
2023/03/31 10:05:42;;;;;;;5.27;1.40;;;;;;;19.26;38.47;96130.44;5047168;28;20846;-72
2023/03/31 10:08:13;;;;;;;4.33;1.43;;;;;;;19.73;37.58;96131.34;5041952;28;20463;-71
2023/03/31 10:10:43;;;;;;;7.70;1.80;;;;;;;20.10;37.26;96113.19;5038340;28;20461;-73
2023/03/31 10:13:09;;;;;;;3.53;1.67;;;;;;;20.24;36.44;96094.28;5043313;28;20519;-70
2023/03/31 10:15:38;;;;;;;7.10;1.70;;;;;;;20.63;35.87;96089.03;5036316;28;20496;-72
2023/03/31 10:18:03;;;;;;;8.20;1.30;;;;;;;21.08;35.25;96102.44;5047551;28;20429;-72
2023/03/31 10:20:28;;;;;;;3.53;1.70;;;;;;;20.89;34.95;96102.72;5047967;28;20460;-72
2023/03/31 10:22:54;;;;;;;7.03;1.67;;;;;;;20.95;34.65;96096.41;5049955;28;20179;-72
2023/03/31 10:25:22;;;;;;;2.70;1.27;;;;;;;21.01;33.92;96098.09;5048660;28;20218;-73
2023/03/31 10:27:51;;;;;;;3.57;1.50;;;;;;;20.98;33.96;96095.91;5041730;28;20242;-72
2023/03/31 10:30:20;;;;;;;13.50;1.90;;;;;;;20.35;34.88;96079.28;5044935;28;20793;-73
2023/03/31 10:32:46;;;;;;;3.60;1.50;;;;;;;20.39;34.77;96073.25;5045192;28;20523;-72
2023/03/31 10:35:34;;;;;;;3.90;1.30;;;;;;;20.36;34.50;96065.72;5061753;28;20432;-72
2023/03/31 10:38:09;;;;;;;4.13;1.30;;;;;;;20.20;34.31;96072.69;5048824;28;20739;-72
2023/03/31 10:40:35;;;;;;;5.47;1.80;;;;;;;19.92;34.44;96061.03;5013386;28;20461;-72
2023/03/31 10:43:15;;;;;;;5.67;1.50;;;;;;;19.72;34.77;96050.81;5055337;28;20936;-72
2023/03/31 10:45:45;;;;;;;6.90;1.40;;;;;;;19.42;35.18;96057.19;5049519;28;20199;-72
2023/03/31 10:48:32;;;;;;;4.80;1.70;;;;;;;19.28;35.45;96046.03;5046326;28;20954;-72
2023/03/31 10:51:01;;;;;;;5.63;1.57;;;;;;;19.42;35.51;96030.63;5032117;28;20801;-72
2023/03/31 10:53:27;;;;;;;6.80;1.30;;;;;;;19.57;35.32;96037.25;5018692;28;20462;-71
2023/03/31 10:56:40;;;;;;;4.90;1.40;;;;;;;19.60;34.60;96036.78;5046439;28;20996;-70
2023/03/31 10:59:24;;;;;;;4.80;1.57;;;;;;;19.56;33.16;96022.34;5026274;28;20293;-72
2023/03/31 11:02:14;;;;;;;5.83;1.50;;;;;;;19.61;33.15;96027.78;5049639;28;20449;-71
2023/03/31 11:04:45;;;;;;;4.37;1.50;;;;;;;19.55;34.03;96023.41;5034121;28;20445;-72
2023/03/31 11:07:20;;;;;;;7.50;1.80;;;;;;;19.56;34.31;96030.34;5034143;28;20457;-70
2023/03/31 11:10:26;;;;;;;4.20;1.43;;;;;;;19.49;34.25;96020.66;5037743;28;20494;-73
2023/03/31 11:12:59;;;;;;;6.20;1.50;;;;;;;19.30;35.22;96024.53;5032636;28;20858;-72
2023/03/31 11:15:37;;;;;;;7.27;1.77;;;;;;;18.85;36.83;96063.19;5032561;28;20525;-72
2023/03/31 11:18:14;;;;;;;6.23;1.53;;;;;;;18.15;39.18;96093.97;5040616;28;20436;-72
2023/03/31 11:21:15;;;;;;;4.90;1.30;;;;;;;17.59;42.06;96166.44;5034606;28;20977;-72
2023/03/31 11:23:42;;;;;;;3.90;1.07;;;;;;;16.42;48.16;96229.53;5046045;28;20426;-72
2023/03/31 11:26:12;;;;;;;4.03;0.90;;;;;;;16.01;48.97;96214.13;5041983;28;20430;-71
2023/03/31 11:28:58;;;;;;;1.37;0.70;;;;;;;15.29;49.21;96213.13;5068251;28;20441;-71
2023/03/31 11:31:51;;;;;;;2.30;0.80;;;;;;;15.08;49.44;96203.63;5048061;28;20494;-71
2023/03/31 11:34:38;;;;;;;5.80;0.70;;;;;;;14.56;50.76;96196.31;5047549;28;21137;-72
2023/03/31 11:37:18;;;;;;;4.40;0.70;;;;;;;14.52;50.76;96200.34;5051325;28;20574;-72
2023/03/31 11:40:07;;;;;;;2.60;0.60;;;;;;;14.06;51.65;96207.16;5049580;28;20425;-71
2023/03/31 11:42:41;;;;;;;1.40;0.50;;;;;;;13.86;51.97;96212.38;5050612;28;20425;-71
2023/03/31 11:45:17;;;;;;;2.80;0.70;;;;;;;13.77;51.87;96200.38;5047430;28;20468;-71
2023/03/31 11:47:45;;;;;;;2.90;0.87;;;;;;;13.90;52.09;96194.38;5045193;28;20540;-71